sensor_id;sensor_type;location;lat;lon;timestamp;pressure;altitude;pressure_sealevel;temperature;humidity
11692;BME280;33659;42.672;23.354;2023-04-15T00:01:21;93573.41;;;10.13;57.59
11692;BME280;33659;42.672;23.354;2023-04-15T00:03:50;93578.19;;;9.92;58.06
11692;BME280;33659;42.672;23.354;2023-04-15T00:06:18;93591.22;;;9.72;59.46
11692;BME280;33659;42.672;23.354;2023-04-15T00:08:46;93608.59;;;9.68;60.86
11692;BME280;33659;42.672;23.354;2023-04-15T00:11:13;93627.16;;;9.83;61.21
11692;BME280;33659;42.672;23.354;2023-04-15T00:13:40;93626.66;;;9.93;60.03
11692;BME280;33659;42.672;23.354;2023-04-15T00:16:08;93618.84;;;10.12;59.23
11692;BME280;33659;42.672;23.354;2023-04-15T00:18:36;93613.31;;;10.33;58.41
11692;BME280;33659;42.672;23.354;2023-04-15T00:21:04;93613.81;;;10.58;58.37
11692;BME280;33659;42.672;23.354;2023-04-15T00:23:30;93622.09;;;10.83;58.09
11692;BME280;33659;42.672;23.354;2023-04-15T00:25:58;93618.25;;;11.00;58.05
11692;BME280;33659;42.672;23.354;2023-04-15T00:28:25;93615.09;;;11.10;57.35
11692;BME280;33659;42.672;23.354;2023-04-15T00:30:52;93612.59;;;11.17;57.73
11692;BME280;33659;42.672;23.354;2023-04-15T00:33:19;93610.94;;;11.32;57.07
11692;BME280;33659;42.672;23.354;2023-04-15T00:35:45;93598.09;;;11.46;56.85
11692;BME280;33659;42.672;23.354;2023-04-15T00:38:12;93606.47;;;11.55;56.83
11692;BME280;33659;42.672;23.354;2023-04-15T00:40:39;93613.66;;;11.62;56.23
11692;BME280;33659;42.672;23.354;2023-04-15T00:43:08;93610.47;;;11.76;56.77
11692;BME280;33659;42.672;23.354;2023-04-15T00:45:34;93622.19;;;11.82;56.13
11692;BME280;33659;42.672;23.354;2023-04-15T00:48:02;93622.66;;;11.91;55.33
11692;BME280;33659;42.672;23.354;2023-04-15T00:50:29;93622.66;;;11.91;55.24
11692;BME280;33659;42.672;23.354;2023-04-15T00:52:55;93617.97;;;12.00;55.85
11692;BME280;33659;42.672;23.354;2023-04-15T00:55:22;93619.72;;;11.92;57.49
11692;BME280;33659;42.672;23.354;2023-04-15T00:57:49;93616.47;;;11.50;59.11
11692;BME280;33659;42.672;23.354;2023-04-15T01:00:17;93621.34;;;11.05;59.38
11692;BME280;33659;42.672;23.354;2023-04-15T01:02:44;93621.34;;;10.82;60.45
11692;BME280;33659;42.672;23.354;2023-04-15T01:05:11;93627.13;;;10.72;60.32
11692;BME280;33659;42.672;23.354;2023-04-15T01:07:38;93624.88;;;10.51;60.41
11692;BME280;33659;42.672;23.354;2023-04-15T01:10:05;93623.63;;;10.26;61.08
11692;BME280;33659;42.672;23.354;2023-04-15T01:12:32;93625.28;;;9.99;63.32
11692;BME280;33659;42.672;23.354;2023-04-15T01:15:00;93624.41;;;9.75;64.68
11692;BME280;33659;42.672;23.354;2023-04-15T01:17:28;93623.06;;;9.66;64.83
11692;BME280;33659;42.672;23.354;2023-04-15T01:19:55;93619.78;;;9.53;63.52
11692;BME280;33659;42.672;23.354;2023-04-15T01:22:25;93624.34;;;9.56;64.05
11692;BME280;33659;42.672;23.354;2023-04-15T01:24:55;93609.84;;;9.74;65.14
11692;BME280;33659;42.672;23.354;2023-04-15T01:27:25;93609.41;;;9.88;62.98
11692;BME280;33659;42.672;23.354;2023-04-15T01:29:52;93604.47;;;10.02;64.15
11692;BME280;33659;42.672;23.354;2023-04-15T01:32:19;93599.25;;;10.02;64.51
11692;BME280;33659;42.672;23.354;2023-04-15T01:34:45;93609.50;;;9.92;65.08
11692;BME280;33659;42.672;23.354;2023-04-15T01:37:12;93604.44;;;9.83;64.87
11692;BME280;33659;42.672;23.354;2023-04-15T01:39:38;93598.84;;;9.65;65.26
11692;BME280;33659;42.672;23.354;2023-04-15T01:42:05;93609.56;;;9.60;64.87
11692;BME280;33659;42.672;23.354;2023-04-15T01:44:34;93612.91;;;9.61;65.47
11692;BME280;33659;42.672;23.354;2023-04-15T01:47:00;93612.47;;;9.59;65.55
11692;BME280;33659;42.672;23.354;2023-04-15T01:49:27;93613.31;;;9.63;65.46
11692;BME280;33659;42.672;23.354;2023-04-15T01:51:54;93625.09;;;9.72;64.25
11692;BME280;33659;42.672;23.354;2023-04-15T01:54:20;93623.84;;;9.66;64.39
11692;BME280;33659;42.672;23.354;2023-04-15T01:56:47;93630.06;;;9.62;64.57
11692;BME280;33659;42.672;23.354;2023-04-15T01:59:13;93635.94;;;9.59;65.16
11692;BME280;33659;42.672;23.354;2023-04-15T02:01:42;93637.78;;;9.58;66.13
11692;BME280;33659;42.672;23.354;2023-04-15T02:04:09;93636.63;;;9.40;65.60
11692;BME280;33659;42.672;23.354;2023-04-15T02:06:41;93633.19;;;9.36;67.07
11692;BME280;33659;42.672;23.354;2023-04-15T02:09:08;93626.97;;;9.25;66.10
11692;BME280;33659;42.672;23.354;2023-04-15T02:11:34;93626.22;;;9.08;65.93
11692;BME280;33659;42.672;23.354;2023-04-15T02:14:01;93627.97;;;9.04;66.26
11692;BME280;33659;42.672;23.354;2023-04-15T02:16:28;93629.81;;;9.04;66.75
11692;BME280;33659;42.672;23.354;2023-04-15T02:18:56;93616.56;;;9.09;67.55
11692;BME280;33659;42.672;23.354;2023-04-15T02:21:25;93614.03;;;9.12;67.10
11692;BME280;33659;42.672;23.354;2023-04-15T02:23:51;93612.25;;;9.32;66.74
11692;BME280;33659;42.672;23.354;2023-04-15T02:26:19;93613.56;;;9.58;66.36
11692;BME280;33659;42.672;23.354;2023-04-15T02:28:46;93613.03;;;9.84;65.33
11692;BME280;33659;42.672;23.354;2023-04-15T02:31:13;93618.00;;;10.08;64.39
11692;BME280;33659;42.672;23.354;2023-04-15T02:33:40;93614.00;;;10.30;64.00
11692;BME280;33659;42.672;23.354;2023-04-15T02:36:08;93610.59;;;10.45;63.14
11692;BME280;33659;42.672;23.354;2023-04-15T02:38:36;93611.06;;;10.51;62.29
11692;BME280;33659;42.672;23.354;2023-04-15T02:41:05;93617.84;;;10.55;62.44
11692;BME280;33659;42.672;23.354;2023-04-15T02:43:31;93617.56;;;10.61;62.90
11692;BME280;33659;42.672;23.354;2023-04-15T02:45:58;93609.69;;;10.57;62.85
11692;BME280;33659;42.672;23.354;2023-04-15T02:48:24;93624.91;;;10.55;62.81
11692;BME280;33659;42.672;23.354;2023-04-15T02:50:51;93628.75;;;10.61;62.56
11692;BME280;33659;42.672;23.354;2023-04-15T02:53:19;93610.91;;;10.63;62.30
11692;BME280;33659;42.672;23.354;2023-04-15T02:55:46;93614.47;;;10.74;62.24
11692;BME280;33659;42.672;23.354;2023-04-15T02:58:13;93628.34;;;10.78;61.86
11692;BME280;33659;42.672;23.354;2023-04-15T03:00:39;93634.81;;;10.65;61.93
11692;BME280;33659;42.672;23.354;2023-04-15T03:03:06;93639.78;;;10.51;61.89
11692;BME280;33659;42.672;23.354;2023-04-15T03:05:33;93635.47;;;10.23;62.67
11692;BME280;33659;42.672;23.354;2023-04-15T03:08:00;93632.44;;;10.21;62.77
11692;BME280;33659;42.672;23.354;2023-04-15T03:10:28;93632.69;;;10.16;62.68
11692;BME280;33659;42.672;23.354;2023-04-15T03:12:55;93631.06;;;10.08;61.80
11692;BME280;33659;42.672;23.354;2023-04-15T03:15:22;93639.97;;;10.07;61.47
11692;BME280;33659;42.672;23.354;2023-04-15T03:17:49;93647.53;;;10.12;60.79
11692;BME280;33659;42.672;23.354;2023-04-15T03:20:16;93657.50;;;10.07;60.23
11692;BME280;33659;42.672;23.354;2023-04-15T03:22:42;93651.28;;;9.95;60.06
11692;BME280;33659;42.672;23.354;2023-04-15T03:25:09;93650.03;;;9.89;59.83
11692;BME280;33659;42.672;23.354;2023-04-15T03:27:38;93661.66;;;9.92;59.24
11692;BME280;33659;42.672;23.354;2023-04-15T03:30:06;93661.66;;;9.92;58.54
11692;BME280;33659;42.672;23.354;2023-04-15T03:32:33;93659.78;;;9.92;58.63
11692;BME280;33659;42.672;23.354;2023-04-15T03:34:59;93677.34;;;9.95;58.82
11692;BME280;33659;42.672;23.354;2023-04-15T03:37:26;93684.13;;;9.65;58.39
11692;BME280;33659;42.672;23.354;2023-04-15T03:39:53;93660.50;;;9.42;58.82
11692;BME280;33659;42.672;23.354;2023-04-15T03:42:19;93680.66;;;9.45;59.01
11692;BME280;33659;42.672;23.354;2023-04-15T03:44:47;93676.78;;;9.39;59.38
11692;BME280;33659;42.672;23.354;2023-04-15T03:47:14;93676.66;;;9.47;59.44
11692;BME280;33659;42.672;23.354;2023-04-15T03:49:41;93691.00;;;9.57;59.40
11692;BME280;33659;42.672;23.354;2023-04-15T03:52:07;93690.19;;;9.69;59.30
11692;BME280;33659;42.672;23.354;2023-04-15T03:54:34;93697.56;;;9.83;58.53
11692;BME280;33659;42.672;23.354;2023-04-15T03:57:01;93691.09;;;9.92;57.71
11692;BME280;33659;42.672;23.354;2023-04-15T03:59:27;93692.41;;;10.02;57.69
11692;BME280;33659;42.672;23.354;2023-04-15T04:01:55;93691.91;;;10.12;56.63
11692;BME280;33659;42.672;23.354;2023-04-15T04:04:22;93683.88;;;10.21;56.84
11692;BME280;33659;42.672;23.354;2023-04-15T04:06:49;93701.47;;;10.24;56.82
11692;BME280;33659;42.672;23.354;2023-04-15T04:09:15;93701.34;;;10.36;56.04
11692;BME280;33659;42.672;23.354;2023-04-15T04:11:42;93702.34;;;10.47;56.58
11692;BME280;33659;42.672;23.354;2023-04-15T04:14:09;93697.81;;;10.44;56.76
11692;BME280;33659;42.672;23.354;2023-04-15T04:16:36;93702.28;;;10.44;57.97
11692;BME280;33659;42.672;23.354;2023-04-15T04:19:04;93699.78;;;10.32;58.95
11692;BME280;33659;42.672;23.354;2023-04-15T04:21:31;93704.34;;;10.03;60.24
11692;BME280;33659;42.672;23.354;2023-04-15T04:23:58;93710.19;;;9.81;61.01
11692;BME280;33659;42.672;23.354;2023-04-15T04:26:25;93701.44;;;9.73;61.64
11692;BME280;33659;42.672;23.354;2023-04-15T04:28:52;93706.81;;;9.80;60.99
11692;BME280;33659;42.672;23.354;2023-04-15T04:31:18;93700.69;;;9.88;61.13
11692;BME280;33659;42.672;23.354;2023-04-15T04:33:45;93705.03;;;10.00;60.82
11692;BME280;33659;42.672;23.354;2023-04-15T04:36:13;93702.03;;;10.17;61.02
11692;BME280;33659;42.672;23.354;2023-04-15T04:38:40;93701.03;;;10.38;60.96
11692;BME280;33659;42.672;23.354;2023-04-15T04:41:06;93709.06;;;10.48;60.82
11692;BME280;33659;42.672;23.354;2023-04-15T04:43:33;93706.53;;;10.52;60.66
11692;BME280;33659;42.672;23.354;2023-04-15T04:46:00;93714.31;;;10.68;60.40
11692;BME280;33659;42.672;23.354;2023-04-15T04:48:26;93712.03;;;10.85;59.87
11692;BME280;33659;42.672;23.354;2023-04-15T04:50:53;93715.34;;;11.02;59.29
11692;BME280;33659;42.672;23.354;2023-04-15T04:53:21;93728.25;;;11.14;58.66
11692;BME280;33659;42.672;23.354;2023-04-15T04:55:48;93727.63;;;11.21;58.55
11692;BME280;33659;42.672;23.354;2023-04-15T04:58:15;93725.16;;;11.28;57.97
11692;BME280;33659;42.672;23.354;2023-04-15T05:00:42;93728.25;;;11.33;57.46
11692;BME280;33659;42.672;23.354;2023-04-15T05:03:08;93733.16;;;11.38;57.03
11692;BME280;33659;42.672;23.354;2023-04-15T05:05:35;93745.59;;;11.45;56.44
11692;BME280;33659;42.672;23.354;2023-04-15T05:08:04;93745.03;;;11.55;56.45
11692;BME280;33659;42.672;23.354;2023-04-15T05:10:32;93746.38;;;11.69;56.23
11692;BME280;33659;42.672;23.354;2023-04-15T05:12:59;93753.97;;;11.77;55.90
11692;BME280;33659;42.672;23.354;2023-04-15T05:15:26;93755.59;;;11.82;55.55
11692;BME280;33659;42.672;23.354;2023-04-15T05:17:53;93772.44;;;11.84;55.25
11692;BME280;33659;42.672;23.354;2023-04-15T05:20:20;93768.78;;;11.89;53.92
11692;BME280;33659;42.672;23.354;2023-04-15T05:22:46;93769.00;;;11.80;53.61
11692;BME280;33659;42.672;23.354;2023-04-15T05:25:13;93768.03;;;11.88;53.78
11692;BME280;33659;42.672;23.354;2023-04-15T05:27:42;93766.28;;;11.96;53.51
11692;BME280;33659;42.672;23.354;2023-04-15T05:30:08;93763.44;;;12.05;53.42
11692;BME280;33659;42.672;23.354;2023-04-15T05:32:35;93759.81;;;12.13;53.19
11692;BME280;33659;42.672;23.354;2023-04-15T05:35:02;93759.09;;;12.16;53.86
11692;BME280;33659;42.672;23.354;2023-04-15T05:37:29;93758.97;;;12.05;54.20
11692;BME280;33659;42.672;23.354;2023-04-15T05:39:55;93768.31;;;11.83;55.34
11692;BME280;33659;42.672;23.354;2023-04-15T05:42:22;93762.72;;;11.62;55.66
11692;BME280;33659;42.672;23.354;2023-04-15T05:44:50;93761.09;;;11.54;56.60
11692;BME280;33659;42.672;23.354;2023-04-15T05:47:17;93762.00;;;11.65;56.90
11692;BME280;33659;42.672;23.354;2023-04-15T05:49:43;93754.59;;;11.67;57.57
11692;BME280;33659;42.672;23.354;2023-04-15T05:52:10;93754.97;;;11.69;57.44
11692;BME280;33659;42.672;23.354;2023-04-15T05:54:37;93764.50;;;11.58;57.33
11692;BME280;33659;42.672;23.354;2023-04-15T05:57:03;93760.13;;;11.43;57.61
11692;BME280;33659;42.672;23.354;2023-04-15T05:59:30;93767.44;;;11.33;57.60
11692;BME280;33659;42.672;23.354;2023-04-15T06:01:58;93778.56;;;11.30;57.13
11692;BME280;33659;42.672;23.354;2023-04-15T06:04:25;93777.91;;;11.33;57.34
11692;BME280;33659;42.672;23.354;2023-04-15T06:06:51;93788.47;;;11.41;56.87
11692;BME280;33659;42.672;23.354;2023-04-15T06:09:18;93786.28;;;11.43;56.46
11692;BME280;33659;42.672;23.354;2023-04-15T06:11:45;93784.72;;;11.61;55.80
11692;BME280;33659;42.672;23.354;2023-04-15T06:14:11;93790.97;;;11.76;54.63
11692;BME280;33659;42.672;23.354;2023-04-15T06:16:38;93784.84;;;11.87;54.40
11692;BME280;33659;42.672;23.354;2023-04-15T06:19:06;93789.81;;;11.96;54.31
11692;BME280;33659;42.672;23.354;2023-04-15T06:21:33;93791.88;;;12.06;54.01
11692;BME280;33659;42.672;23.354;2023-04-15T06:23:59;93786.78;;;12.17;53.63
11692;BME280;33659;42.672;23.354;2023-04-15T06:26:27;93793.00;;;12.32;53.33
11692;BME280;33659;42.672;23.354;2023-04-15T06:28:54;93798.38;;;12.42;53.24
11692;BME280;33659;42.672;23.354;2023-04-15T06:31:21;93808.94;;;12.46;53.22
11692;BME280;33659;42.672;23.354;2023-04-15T06:33:48;93811.28;;;12.55;53.49
11692;BME280;33659;42.672;23.354;2023-04-15T06:36:16;93812.91;;;12.63;52.94
11692;BME280;33659;42.672;23.354;2023-04-15T06:38:42;93812.28;;;12.73;52.66
11692;BME280;33659;42.672;23.354;2023-04-15T06:41:09;93817.22;;;12.78;52.68
11692;BME280;33659;42.672;23.354;2023-04-15T06:43:36;93823.78;;;12.91;52.09
11692;BME280;33659;42.672;23.354;2023-04-15T06:46:03;93813.28;;;12.91;51.72
11692;BME280;33659;42.672;23.354;2023-04-15T06:48:30;93824.97;;;12.97;51.88
11692;BME280;33659;42.672;23.354;2023-04-15T06:50:56;93830.66;;;13.03;51.50
11692;BME280;33659;42.672;23.354;2023-04-15T06:53:25;93825.88;;;13.09;51.59
11692;BME280;33659;42.672;23.354;2023-04-15T06:55:52;93825.97;;;13.16;51.35
11692;BME280;33659;42.672;23.354;2023-04-15T06:58:18;93829.19;;;13.06;51.28
11692;BME280;33659;42.672;23.354;2023-04-15T07:00:46;93825.06;;;13.05;51.38
11692;BME280;33659;42.672;23.354;2023-04-15T07:03:13;93827.78;;;13.12;51.34
11692;BME280;33659;42.672;23.354;2023-04-15T07:05:40;93818.50;;;13.18;50.93
11692;BME280;33659;42.672;23.354;2023-04-15T07:08:06;93821.41;;;13.13;50.74
11692;BME280;33659;42.672;23.354;2023-04-15T07:10:34;93824.47;;;13.15;51.03
11692;BME280;33659;42.672;23.354;2023-04-15T07:13:01;93829.72;;;13.18;51.09
11692;BME280;33659;42.672;23.354;2023-04-15T07:15:28;93825.41;;;13.30;50.84
11692;BME280;33659;42.672;23.354;2023-04-15T07:17:57;93828.19;;;13.44;50.67
11692;BME280;33659;42.672;23.354;2023-04-15T07:20:24;93828.31;;;13.54;50.19
11692;BME280;33659;42.672;23.354;2023-04-15T07:22:51;93828.31;;;13.54;49.77
11692;BME280;33659;42.672;23.354;2023-04-15T07:25:18;93829.44;;;13.53;49.94
11692;BME280;33659;42.672;23.354;2023-04-15T07:27:46;93830.63;;;13.60;49.65
11692;BME280;33659;42.672;23.354;2023-04-15T07:30:13;93832.44;;;13.55;49.98
11692;BME280;33659;42.672;23.354;2023-04-15T07:32:41;93837.63;;;13.52;49.91
11692;BME280;33659;42.672;23.354;2023-04-15T07:35:08;93833.16;;;13.52;49.92
11692;BME280;33659;42.672;23.354;2023-04-15T07:37:35;93833.25;;;13.63;49.58
11692;BME280;33659;42.672;23.354;2023-04-15T07:40:01;93831.44;;;13.67;49.62
11692;BME280;33659;42.672;23.354;2023-04-15T07:42:29;93826.66;;;13.76;49.59
11692;BME280;33659;42.672;23.354;2023-04-15T07:44:57;93825.22;;;13.82;48.89
11692;BME280;33659;42.672;23.354;2023-04-15T07:47:24;93827.06;;;13.78;48.77
11692;BME280;33659;42.672;23.354;2023-04-15T07:49:51;93827.25;;;13.63;48.80
11692;BME280;33659;42.672;23.354;2023-04-15T07:52:18;93831.47;;;13.71;49.29
11692;BME280;33659;42.672;23.354;2023-04-15T07:54:44;93840.47;;;13.70;49.83
11692;BME280;33659;42.672;23.354;2023-04-15T07:57:11;93841.88;;;13.64;50.07
11692;BME280;33659;42.672;23.354;2023-04-15T07:59:38;93852.06;;;13.69;50.00
11692;BME280;33659;42.672;23.354;2023-04-15T08:02:06;93837.44;;;13.68;50.19
11692;BME280;33659;42.672;23.354;2023-04-15T08:04:32;93847.28;;;13.78;49.99
11692;BME280;33659;42.672;23.354;2023-04-15T08:06:59;93845.00;;;13.73;50.03
11692;BME280;33659;42.672;23.354;2023-04-15T08:09:26;93837.59;;;13.82;49.89
11692;BME280;33659;42.672;23.354;2023-04-15T08:11:52;93847.44;;;13.92;49.92
11692;BME280;33659;42.672;23.354;2023-04-15T08:14:19;93842.25;;;13.99;49.74
11692;BME280;33659;42.672;23.354;2023-04-15T08:16:46;93846.44;;;14.04;48.94
11692;BME280;33659;42.672;23.354;2023-04-15T08:19:14;93843.81;;;14.04;49.27
11692;BME280;33659;42.672;23.354;2023-04-15T08:21:41;93841.19;;;14.07;48.62
11692;BME280;33659;42.672;23.354;2023-04-15T08:24:08;93844.59;;;14.08;49.07
11692;BME280;33659;42.672;23.354;2023-04-15T08:26:35;93843.81;;;14.07;48.39
11692;BME280;33659;42.672;23.354;2023-04-15T08:29:02;93844.69;;;14.19;47.82
11692;BME280;33659;42.672;23.354;2023-04-15T08:31:29;93847.75;;;14.28;47.47
11692;BME280;33659;42.672;23.354;2023-04-15T08:33:56;93839.09;;;14.24;47.12
11692;BME280;33659;42.672;23.354;2023-04-15T08:36:25;93833.47;;;14.25;47.37
11692;BME280;33659;42.672;23.354;2023-04-15T08:38:52;93812.38;;;14.15;47.61
11692;BME280;33659;42.672;23.354;2023-04-15T08:41:22;93825.75;;;14.43;47.33
11692;BME280;33659;42.672;23.354;2023-04-15T08:43:52;93826.66;;;14.65;46.33
11692;BME280;33659;42.672;23.354;2023-04-15T08:46:20;93830.44;;;14.68;46.54
11692;BME280;33659;42.672;23.354;2023-04-15T08:48:48;93833.47;;;14.73;46.65
11692;BME280;33659;42.672;23.354;2023-04-15T08:51:15;93812.91;;;14.82;46.20
11692;BME280;33659;42.672;23.354;2023-04-15T08:53:44;93805.81;;;14.90;45.43
11692;BME280;33659;42.672;23.354;2023-04-15T08:56:13;93813.75;;;15.01;46.62
11692;BME280;33659;42.672;23.354;2023-04-15T08:58:41;93810.75;;;15.02;46.71
11692;BME280;33659;42.672;23.354;2023-04-15T09:01:09;93807.00;;;15.07;45.65
11692;BME280;33659;42.672;23.354;2023-04-15T09:03:35;93819.03;;;15.11;45.12
11692;BME280;33659;42.672;23.354;2023-04-15T09:06:03;93803.31;;;15.22;44.95
11692;BME280;33659;42.672;23.354;2023-04-15T09:08:30;93811.25;;;15.33;44.45
11692;BME280;33659;42.672;23.354;2023-04-15T09:10:58;93799.25;;;15.42;43.37
11692;BME280;33659;42.672;23.354;2023-04-15T09:13:25;93797.41;;;15.47;42.50
11692;BME280;33659;42.672;23.354;2023-04-15T09:15:52;93779.72;;;15.40;41.17
11692;BME280;33659;42.672;23.354;2023-04-15T09:18:29;93793.63;;;15.48;40.03
11692;BME280;33659;42.672;23.354;2023-04-15T09:21:03;93784.25;;;15.50;40.39
11692;BME280;33659;42.672;23.354;2023-04-15T09:23:31;93790.28;;;15.54;39.34
11692;BME280;33659;42.672;23.354;2023-04-15T09:25:59;93794.03;;;15.57;39.36
11692;BME280;33659;42.672;23.354;2023-04-15T09:28:27;93788.84;;;15.67;39.52
11692;BME280;33659;42.672;23.354;2023-04-15T09:30:57;93799.00;;;15.73;39.11
11692;BME280;33659;42.672;23.354;2023-04-15T09:33:25;93796.28;;;15.58;39.28
11692;BME280;33659;42.672;23.354;2023-04-15T09:35:59;93792.91;;;15.61;39.42
11692;BME280;33659;42.672;23.354;2023-04-15T09:38:26;93790.72;;;15.78;39.46
11692;BME280;33659;42.672;23.354;2023-04-15T09:40:53;93790.38;;;15.97;39.20
11692;BME280;33659;42.672;23.354;2023-04-15T09:43:21;93788.88;;;16.21;39.24
11692;BME280;33659;42.672;23.354;2023-04-15T09:45:53;93797.53;;;16.36;38.74
11692;BME280;33659;42.672;23.354;2023-04-15T09:48:21;93788.13;;;16.49;37.91
11692;BME280;33659;42.672;23.354;2023-04-15T09:50:49;93773.44;;;16.48;38.22
11692;BME280;33659;42.672;23.354;2023-04-15T09:53:18;93792.25;;;16.71;37.88
11692;BME280;33659;42.672;23.354;2023-04-15T09:55:48;93805.81;;;16.73;37.82
11692;BME280;33659;42.672;23.354;2023-04-15T09:58:20;93798.66;;;16.74;37.29
11692;BME280;33659;42.672;23.354;2023-04-15T10:00:50;93797.50;;;16.86;36.93
11692;BME280;33659;42.672;23.354;2023-04-15T10:03:21;93794.09;;;16.96;36.80
11692;BME280;33659;42.672;23.354;2023-04-15T10:05:49;93791.78;;;17.05;36.78
11692;BME280;33659;42.672;23.354;2023-04-15T10:08:18;93791.41;;;17.10;36.48
11692;BME280;33659;42.672;23.354;2023-04-15T10:10:45;93785.38;;;17.13;36.13
11692;BME280;33659;42.672;23.354;2023-04-15T10:13:13;93794.41;;;17.12;35.35
11692;BME280;33659;42.672;23.354;2023-04-15T10:15:43;93786.50;;;17.16;34.82
11692;BME280;33659;42.672;23.354;2023-04-15T10:18:12;93774.03;;;17.23;34.67
11692;BME280;33659;42.672;23.354;2023-04-15T10:20:41;93772.09;;;17.35;31.95
11692;BME280;33659;42.672;23.354;2023-04-15T10:23:11;93755.13;;;17.36;31.43
11692;BME280;33659;42.672;23.354;2023-04-15T10:25:38;93773.69;;;17.14;31.43
11692;BME280;33659;42.672;23.354;2023-04-15T10:28:05;93761.63;;;17.06;32.06
11692;BME280;33659;42.672;23.354;2023-04-15T10:30:32;93762.78;;;17.05;32.15
11692;BME280;33659;42.672;23.354;2023-04-15T10:32:59;93757.13;;;17.03;32.32
11692;BME280;33659;42.672;23.354;2023-04-15T10:35:29;93746.91;;;17.12;32.38
11692;BME280;33659;42.672;23.354;2023-04-15T10:37:57;93751.91;;;16.96;32.32
11692;BME280;33659;42.672;23.354;2023-04-15T10:40:26;93750.81;;;16.75;32.81
11692;BME280;33659;42.672;23.354;2023-04-15T10:42:54;93749.72;;;16.44;33.27
11692;BME280;33659;42.672;23.354;2023-04-15T10:45:21;93735.06;;;15.97;33.48
11692;BME280;33659;42.672;23.354;2023-04-15T10:47:51;93753.13;;;16.09;34.10
11692;BME280;33659;42.672;23.354;2023-04-15T10:50:18;93753.13;;;16.34;33.84
11692;BME280;33659;42.672;23.354;2023-04-15T10:52:49;93744.81;;;16.53;33.80
11692;BME280;33659;42.672;23.354;2023-04-15T10:55:19;93747.09;;;16.55;34.74
11692;BME280;33659;42.672;23.354;2023-04-15T10:57:46;93743.31;;;16.45;34.58
11692;BME280;33659;42.672;23.354;2023-04-15T11:00:18;93755.72;;;16.48;34.75
11692;BME280;33659;42.672;23.354;2023-04-15T11:02:47;93739.53;;;16.64;35.27
11692;BME280;33659;42.672;23.354;2023-04-15T11:05:14;93747.69;;;17.05;34.48
11692;BME280;33659;42.672;23.354;2023-04-15T11:07:52;93744.88;;;17.45;34.42
11692;BME280;33659;42.672;23.354;2023-04-15T11:10:49;93750.41;;;17.75;33.79
11692;BME280;33659;42.672;23.354;2023-04-15T11:13:23;93748.38;;;17.94;33.38
11692;BME280;33659;42.672;23.354;2023-04-15T11:15:54;93744.06;;;18.14;32.97
11692;BME280;33659;42.672;23.354;2023-04-15T11:18:24;93739.47;;;18.25;32.96
11692;BME280;33659;42.672;23.354;2023-04-15T11:20:53;93728.09;;;18.28;32.40
11692;BME280;33659;42.672;23.354;2023-04-15T11:23:28;93741.91;;;18.47;32.56
11692;BME280;33659;42.672;23.354;2023-04-15T11:25:56;93730.84;;;18.59;32.35
11692;BME280;33659;42.672;23.354;2023-04-15T11:28:25;93737.16;;;18.72;31.91
11692;BME280;33659;42.672;23.354;2023-04-15T11:30:52;93746.56;;;18.77;31.81
11692;BME280;33659;42.672;23.354;2023-04-15T11:33:20;93747.81;;;18.61;31.85
11692;BME280;33659;42.672;23.354;2023-04-15T11:35:48;93744.41;;;18.61;31.81
11692;BME280;33659;42.672;23.354;2023-04-15T11:38:15;93755.50;;;18.49;28.31
11692;BME280;33659;42.672;23.354;2023-04-15T11:40:43;93757.28;;;18.18;28.02
11692;BME280;33659;42.672;23.354;2023-04-15T11:43:11;93737.47;;;17.88;27.46
11692;BME280;33659;42.672;23.354;2023-04-15T11:45:47;93737.59;;;17.74;26.00
11692;BME280;33659;42.672;23.354;2023-04-15T11:48:16;93753.44;;;17.74;26.67
11692;BME280;33659;42.672;23.354;2023-04-15T11:50:43;93736.78;;;17.80;26.93
11692;BME280;33659;42.672;23.354;2023-04-15T11:53:11;93727.75;;;17.78;26.90
11692;BME280;33659;42.672;23.354;2023-04-15T11:55:43;93726.91;;;17.92;27.52
11692;BME280;33659;42.672;23.354;2023-04-15T11:58:12;93730.63;;;17.98;27.24
11692;BME280;33659;42.672;23.354;2023-04-15T12:00:42;93728.84;;;17.80;27.75
11692;BME280;33659;42.672;23.354;2023-04-15T12:03:23;93721.06;;;17.55;28.02
11692;BME280;33659;42.672;23.354;2023-04-15T12:06:08;93737.66;;;17.59;27.58
11692;BME280;33659;42.672;23.354;2023-04-15T12:09:02;93743.69;;;17.56;27.38
11692;BME280;33659;42.672;23.354;2023-04-15T12:11:38;93718.03;;;17.57;27.08
11692;BME280;33659;42.672;23.354;2023-04-15T12:14:08;93723.97;;;17.75;27.13
11692;BME280;33659;42.672;23.354;2023-04-15T12:16:36;93717.56;;;17.76;26.83
11692;BME280;33659;42.672;23.354;2023-04-15T12:19:05;93723.63;;;17.73;27.14
11692;BME280;33659;42.672;23.354;2023-04-15T12:21:34;93717.09;;;17.89;26.73
11692;BME280;33659;42.672;23.354;2023-04-15T12:24:04;93729.50;;;17.95;26.87
11692;BME280;33659;42.672;23.354;2023-04-15T12:26:35;93729.16;;;17.90;26.51
11692;BME280;33659;42.672;23.354;2023-04-15T12:29:05;93709.16;;;17.89;27.24
11692;BME280;33659;42.672;23.354;2023-04-15T12:31:33;93724.16;;;18.06;27.34
11692;BME280;33659;42.672;23.354;2023-04-15T12:33:59;93716.44;;;18.22;27.31
11692;BME280;33659;42.672;23.354;2023-04-15T12:36:27;93726.66;;;18.20;27.41
11692;BME280;33659;42.672;23.354;2023-04-15T12:38:54;93722.38;;;17.89;27.63
11692;BME280;33659;42.672;23.354;2023-04-15T12:41:21;93741.31;;;17.80;27.88
11692;BME280;33659;42.672;23.354;2023-04-15T12:43:48;93735.97;;;17.87;27.79
11692;BME280;33659;42.672;23.354;2023-04-15T12:46:16;93767.22;;;17.96;27.84
11692;BME280;33659;42.672;23.354;2023-04-15T12:48:44;93741.91;;;18.02;28.33
11692;BME280;33659;42.672;23.354;2023-04-15T12:51:11;93745.56;;;18.15;28.52
11692;BME280;33659;42.672;23.354;2023-04-15T12:53:37;93736.50;;;18.16;28.80
11692;BME280;33659;42.672;23.354;2023-04-15T12:56:04;93747.88;;;18.13;28.42